Terminal Aerodrome Forecast
Issued by NWS

Home | Current Version | Previous Version | Text Only | Print | Product List | Glossary On
Versions: 1 2 3 4 5 6 7 8 9 10 11 12 13 14 15 16 17 18 19 20
000
FTUS43 KDLH 231100
TAFBRD
TAF
KBRD 231134Z 2312/2412 33003KT P6SM SCT150
     FM231800 34007KT P6SM SCT040
      TEMPO 2319/2322 BKN040
     FM240000 VRB02KT P6SM FEW040
      TEMPO 2408/2412 5SM BR SCT005=

USA.gov is the U.S. government's official web portal to all federal, state and local government web resources and services.